Flugplatz Kamenz

Für EDCM sind keine METAR/TAF Berichte vorhanden.
Es werden die Flugwettermeldungen vom Flugplatz Dresden in 30 km Entfernung angezeigt.

Bericht für EDDC

vom 09.08. um 03:20 UTC

variable Windrichtung mit 1 kt

Sichtweite 10 km oder mehr

gute Sicht, keine Wolken < 5000 ft, keine CB, keine Wettererscheinungen (CAVOK)

Temperatur 13.0°C

Taupunkt 8.0°C

Luftfeuchtigkeit 72%

Luftdruck 1026 hPa

EDDC 090320Z AUTO VRB01KT CAVOK 13/08 Q1026

Prognose für EDDC

vom 08.08. um 23:00 UTC

Zwischen 00:00 UTC und 06:00 UTC

Wind 4 kt aus 160°

Sichtweite 10 km oder mehr

keine signifikanten Wettererscheinungen

keine Wolken


Zwischen 06:00 und 09:00 UTC übergehend zu

Wind 5 kt aus 40°

Sichtweite 10 km oder mehr

keine signifikanten Wettererscheinungen

keine Wolken

TAF EDDC 082300Z 0900/0924 16004KT CAVOK BECMG 0906/0909 04005KT
Impressum